Dayton, New York
Current Conditions -  °F | °C
As of 2:53 AM on Sunday 23 Nov 2014 (Local Time) from KDKK Reporting Station
Overcast Overcast  
Wind Chill: 38°   Ceiling: 3600
Heat Index: 45°   Visibility: 10mi
Dew Point: 36°   Wind: 16mph
Humidity: 71%   Direction: 200°SSW
Pressure: 30.01"   Gusts: 25mph
Location:  42.42°N, 78.98°W
Report Text: KDKK 230753Z AUTO 20014G22KT 10SM OVC036 07/02 A3001 RMK AO2 SLP166 T00720022
Loading
Personal Weather Stations






























Interactive Weather Map New forecast layout! Learn more

10-Day Weather Forecast

Advertisements
Track Severe Weather on mobile